Terminal Aerodrome Forecast
Issued by NWS Brownsville, TX

Home | Current Version | Previous Version | Text Only | Print | Product List | Glossary On
Versions: 1 2 3 4 5 6 7 8 9 10 11 12 13 14 15 16 17
000
FTUS44 KBRO 310500
TAFMFE
TAF
KMFE 310520Z 3106/0106 14016G24KT P6SM BKN020
     FM311000 14010KT P6SM BKN020
     FM311500 15017G27KT P6SM FEW250
     FM010200 14013KT P6SM SKC=

USA.gov is the U.S. government's official web portal to all federal, state and local government web resources and services.